sensor_id;sensor_type;location;lat;lon;timestamp;temperature;humidity
324;DHT22;149;51.094;17.002;2023-04-24T00:02:11;13.70;99.90
324;DHT22;149;51.094;17.002;2023-04-24T00:04:38;13.70;99.90
324;DHT22;149;51.094;17.002;2023-04-24T00:07:08;13.70;99.90
324;DHT22;149;51.094;17.002;2023-04-24T00:09:35;13.60;99.90
324;DHT22;149;51.094;17.002;2023-04-24T00:12:02;13.70;99.90
324;DHT22;149;51.094;17.002;2023-04-24T00:14:31;13.50;99.90
324;DHT22;149;51.094;17.002;2023-04-24T00:16:58;13.50;99.90
324;DHT22;149;51.094;17.002;2023-04-24T00:19:25;13.50;99.90
324;DHT22;149;51.094;17.002;2023-04-24T00:21:52;13.90;99.90
324;DHT22;149;51.094;17.002;2023-04-24T00:24:22;13.50;99.90
324;DHT22;149;51.094;17.002;2023-04-24T00:26:48;14.00;99.90
324;DHT22;149;51.094;17.002;2023-04-24T00:29:15;13.60;99.90
324;DHT22;149;51.094;17.002;2023-04-24T00:31:42;13.60;99.90
324;DHT22;149;51.094;17.002;2023-04-24T00:34:09;13.50;99.90
324;DHT22;149;51.094;17.002;2023-04-24T00:36:38;13.90;99.90
324;DHT22;149;51.094;17.002;2023-04-24T00:39:05;13.70;99.90
324;DHT22;149;51.094;17.002;2023-04-24T00:41:32;13.40;99.90
324;DHT22;149;51.094;17.002;2023-04-24T00:44:02;13.10;99.90
324;DHT22;149;51.094;17.002;2023-04-24T00:46:29;14.90;99.90
324;DHT22;149;51.094;17.002;2023-04-24T00:48:59;13.90;99.90
324;DHT22;149;51.094;17.002;2023-04-24T00:51:28;13.80;99.90
324;DHT22;149;51.094;17.002;2023-04-24T00:53:55;13.50;99.90
324;DHT22;149;51.094;17.002;2023-04-24T00:56:23;13.70;99.90
324;DHT22;149;51.094;17.002;2023-04-24T00:58:50;13.70;99.90
324;DHT22;149;51.094;17.002;2023-04-24T01:01:21;13.90;99.90
324;DHT22;149;51.094;17.002;2023-04-24T01:03:51;13.70;99.90
324;DHT22;149;51.094;17.002;2023-04-24T01:06:19;13.40;99.90
324;DHT22;149;51.094;17.002;2023-04-24T01:08:49;13.70;99.90
324;DHT22;149;51.094;17.002;2023-04-24T01:11:16;13.50;99.90
324;DHT22;149;51.094;17.002;2023-04-24T01:13:45;13.40;99.90
324;DHT22;149;51.094;17.002;2023-04-24T01:16:12;13.50;99.90
324;DHT22;149;51.094;17.002;2023-04-24T01:18:40;13.20;99.90
324;DHT22;149;51.094;17.002;2023-04-24T01:21:14;13.20;99.90
324;DHT22;149;51.094;17.002;2023-04-24T01:23:46;13.90;99.90
324;DHT22;149;51.094;17.002;2023-04-24T01:26:15;13.40;99.90
324;DHT22;149;51.094;17.002;2023-04-24T01:28:42;13.20;99.90
324;DHT22;149;51.094;17.002;2023-04-24T01:31:09;13.50;99.90
324;DHT22;149;51.094;17.002;2023-04-24T01:33:37;13.00;99.90
324;DHT22;149;51.094;17.002;2023-04-24T01:36:04;12.70;99.90
324;DHT22;149;51.094;17.002;2023-04-24T01:38:36;13.10;99.90
324;DHT22;149;51.094;17.002;2023-04-24T01:41:02;13.20;99.90
324;DHT22;149;51.094;17.002;2023-04-24T01:43:30;13.20;99.90
324;DHT22;149;51.094;17.002;2023-04-24T01:45:59;13.20;99.90
324;DHT22;149;51.094;17.002;2023-04-24T01:48:26;13.80;99.90
324;DHT22;149;51.094;17.002;2023-04-24T01:50:53;13.50;99.90
324;DHT22;149;51.094;17.002;2023-04-24T01:53:20;13.10;99.90
324;DHT22;149;51.094;17.002;2023-04-24T01:55:47;13.60;99.90
324;DHT22;149;51.094;17.002;2023-04-24T01:58:14;13.50;99.90
324;DHT22;149;51.094;17.002;2023-04-24T02:00:41;12.90;99.90
324;DHT22;149;51.094;17.002;2023-04-24T02:03:08;13.40;99.90
324;DHT22;149;51.094;17.002;2023-04-24T02:05:35;13.60;99.90
324;DHT22;149;51.094;17.002;2023-04-24T02:08:02;12.90;99.90
324;DHT22;149;51.094;17.002;2023-04-24T02:10:29;13.00;99.90
324;DHT22;149;51.094;17.002;2023-04-24T02:12:56;13.00;99.90
324;DHT22;149;51.094;17.002;2023-04-24T02:15:23;13.00;99.90
324;DHT22;149;51.094;17.002;2023-04-24T02:17:52;13.30;99.90
324;DHT22;149;51.094;17.002;2023-04-24T02:20:22;12.90;99.90
324;DHT22;149;51.094;17.002;2023-04-24T02:22:49;12.80;99.90
324;DHT22;149;51.094;17.002;2023-04-24T02:25:16;12.80;99.90
324;DHT22;149;51.094;17.002;2023-04-24T02:27:43;12.90;99.90
324;DHT22;149;51.094;17.002;2023-04-24T02:30:10;12.70;99.90
324;DHT22;149;51.094;17.002;2023-04-24T02:32:37;12.70;99.90
324;DHT22;149;51.094;17.002;2023-04-24T02:35:06;12.60;99.90
324;DHT22;149;51.094;17.002;2023-04-24T02:37:33;12.60;99.90
324;DHT22;149;51.094;17.002;2023-04-24T02:40:00;12.60;99.90
324;DHT22;149;51.094;17.002;2023-04-24T02:42:27;12.60;99.90
324;DHT22;149;51.094;17.002;2023-04-24T02:44:54;12.60;99.90
324;DHT22;149;51.094;17.002;2023-04-24T02:47:20;12.80;99.90
324;DHT22;149;51.094;17.002;2023-04-24T02:49:49;12.50;99.90
324;DHT22;149;51.094;17.002;2023-04-24T02:52:16;12.60;99.90
324;DHT22;149;51.094;17.002;2023-04-24T02:54:43;12.60;99.90
324;DHT22;149;51.094;17.002;2023-04-24T02:57:10;12.50;99.90
324;DHT22;149;51.094;17.002;2023-04-24T02:59:37;12.60;99.90
324;DHT22;149;51.094;17.002;2023-04-24T03:02:04;12.50;99.90
324;DHT22;149;51.094;17.002;2023-04-24T03:04:30;12.50;99.90
324;DHT22;149;51.094;17.002;2023-04-24T03:06:58;12.60;99.90
324;DHT22;149;51.094;17.002;2023-04-24T03:09:25;12.60;99.90
324;DHT22;149;51.094;17.002;2023-04-24T03:11:52;12.50;99.90
324;DHT22;149;51.094;17.002;2023-04-24T03:14:19;12.80;99.90
324;DHT22;149;51.094;17.002;2023-04-24T03:16:46;12.70;99.90
324;DHT22;149;51.094;17.002;2023-04-24T03:19:13;12.60;99.90
324;DHT22;149;51.094;17.002;2023-04-24T03:21:40;12.60;99.90
324;DHT22;149;51.094;17.002;2023-04-24T03:24:10;12.80;99.90
324;DHT22;149;51.094;17.002;2023-04-24T03:26:36;12.70;99.90
324;DHT22;149;51.094;17.002;2023-04-24T03:29:03;12.70;99.90
324;DHT22;149;51.094;17.002;2023-04-24T03:31:30;12.90;99.90
324;DHT22;149;51.094;17.002;2023-04-24T03:33:57;12.90;99.90
324;DHT22;149;51.094;17.002;2023-04-24T03:36:24;12.90;99.90
324;DHT22;149;51.094;17.002;2023-04-24T03:38:52;12.90;99.90
324;DHT22;149;51.094;17.002;2023-04-24T03:41:19;13.00;99.90
324;DHT22;149;51.094;17.002;2023-04-24T03:43:46;12.80;99.90
324;DHT22;149;51.094;17.002;2023-04-24T03:46:13;12.80;99.90
324;DHT22;149;51.094;17.002;2023-04-24T03:48:40;12.80;99.90
324;DHT22;149;51.094;17.002;2023-04-24T03:51:07;12.80;99.90
324;DHT22;149;51.094;17.002;2023-04-24T03:53:34;12.90;99.90
324;DHT22;149;51.094;17.002;2023-04-24T03:56:01;12.90;99.90
324;DHT22;149;51.094;17.002;2023-04-24T03:58:28;12.90;99.90
324;DHT22;149;51.094;17.002;2023-04-24T04:00:55;12.80;99.90
324;DHT22;149;51.094;17.002;2023-04-24T04:03:25;12.60;99.90
324;DHT22;149;51.094;17.002;2023-04-24T04:05:54;12.90;99.90
324;DHT22;149;51.094;17.002;2023-04-24T04:08:20;12.90;99.90
324;DHT22;149;51.094;17.002;2023-04-24T04:10:47;12.60;99.90
324;DHT22;149;51.094;17.002;2023-04-24T04:13:14;12.50;99.90
324;DHT22;149;51.094;17.002;2023-04-24T04:15:41;12.40;99.90
324;DHT22;149;51.094;17.002;2023-04-24T04:18:08;12.30;99.90
324;DHT22;149;51.094;17.002;2023-04-24T04:20:35;12.80;99.90
324;DHT22;149;51.094;17.002;2023-04-24T04:23:02;12.40;99.90
324;DHT22;149;51.094;17.002;2023-04-24T04:25:29;12.30;99.90
324;DHT22;149;51.094;17.002;2023-04-24T04:27:59;12.40;99.90
324;DHT22;149;51.094;17.002;2023-04-24T04:30:26;12.70;99.90
324;DHT22;149;51.094;17.002;2023-04-24T04:32:53;12.80;99.90
324;DHT22;149;51.094;17.002;2023-04-24T04:35:20;13.00;99.90
324;DHT22;149;51.094;17.002;2023-04-24T04:37:48;13.10;99.90
324;DHT22;149;51.094;17.002;2023-04-24T04:40:15;13.20;99.90
324;DHT22;149;51.094;17.002;2023-04-24T04:42:44;13.50;99.90
324;DHT22;149;51.094;17.002;2023-04-24T04:45:13;13.60;99.90
324;DHT22;149;51.094;17.002;2023-04-24T04:47:40;13.60;99.90
324;DHT22;149;51.094;17.002;2023-04-24T04:50:07;14.40;99.90
324;DHT22;149;51.094;17.002;2023-04-24T04:52:34;13.80;99.90
324;DHT22;149;51.094;17.002;2023-04-24T04:55:02;13.70;99.90
324;DHT22;149;51.094;17.002;2023-04-24T04:57:31;14.20;99.90
324;DHT22;149;51.094;17.002;2023-04-24T05:00:00;13.70;99.90
324;DHT22;149;51.094;17.002;2023-04-24T05:02:29;13.90;99.90
324;DHT22;149;51.094;17.002;2023-04-24T05:04:56;13.70;99.90
324;DHT22;149;51.094;17.002;2023-04-24T05:07:23;14.00;99.90
324;DHT22;149;51.094;17.002;2023-04-24T05:09:50;14.50;99.90
324;DHT22;149;51.094;17.002;2023-04-24T05:12:18;14.20;99.90
324;DHT22;149;51.094;17.002;2023-04-24T05:14:45;14.40;99.90
324;DHT22;149;51.094;17.002;2023-04-24T05:17:12;14.50;99.90
324;DHT22;149;51.094;17.002;2023-04-24T05:19:39;14.50;99.90
324;DHT22;149;51.094;17.002;2023-04-24T05:22:06;14.50;99.90
324;DHT22;149;51.094;17.002;2023-04-24T05:24:34;14.60;99.90
324;DHT22;149;51.094;17.002;2023-04-24T05:27:02;14.60;99.90
324;DHT22;149;51.094;17.002;2023-04-24T05:29:29;14.70;99.90
324;DHT22;149;51.094;17.002;2023-04-24T05:31:58;14.80;99.90
324;DHT22;149;51.094;17.002;2023-04-24T05:34:25;15.00;99.90
324;DHT22;149;51.094;17.002;2023-04-24T05:36:52;15.30;99.90
324;DHT22;149;51.094;17.002;2023-04-24T05:39:20;15.40;99.90
324;DHT22;149;51.094;17.002;2023-04-24T05:41:47;15.40;99.90
324;DHT22;149;51.094;17.002;2023-04-24T05:44:14;15.40;99.90
324;DHT22;149;51.094;17.002;2023-04-24T05:46:41;15.70;99.90
324;DHT22;149;51.094;17.002;2023-04-24T05:49:08;15.80;99.90
324;DHT22;149;51.094;17.002;2023-04-24T05:51:36;15.80;99.90
324;DHT22;149;51.094;17.002;2023-04-24T05:54:03;15.90;99.90
324;DHT22;149;51.094;17.002;2023-04-24T05:56:30;16.10;99.90
324;DHT22;149;51.094;17.002;2023-04-24T05:58:57;16.50;99.90
324;DHT22;149;51.094;17.002;2023-04-24T06:01:24;16.20;99.90
324;DHT22;149;51.094;17.002;2023-04-24T06:03:51;16.30;99.90
324;DHT22;149;51.094;17.002;2023-04-24T06:06:20;16.30;99.90
324;DHT22;149;51.094;17.002;2023-04-24T06:08:47;16.50;99.90
324;DHT22;149;51.094;17.002;2023-04-24T06:11:14;16.60;99.90
324;DHT22;149;51.094;17.002;2023-04-24T06:13:41;16.80;99.90
324;DHT22;149;51.094;17.002;2023-04-24T06:16:08;16.50;99.90
324;DHT22;149;51.094;17.002;2023-04-24T06:18:35;16.40;99.90
324;DHT22;149;51.094;17.002;2023-04-24T06:21:02;16.40;99.90
324;DHT22;149;51.094;17.002;2023-04-24T06:23:29;16.50;99.90
324;DHT22;149;51.094;17.002;2023-04-24T06:25:59;16.90;99.90
324;DHT22;149;51.094;17.002;2023-04-24T06:28:26;16.60;99.90
324;DHT22;149;51.094;17.002;2023-04-24T06:30:53;16.90;99.90
324;DHT22;149;51.094;17.002;2023-04-24T06:33:20;17.70;99.90
324;DHT22;149;51.094;17.002;2023-04-24T06:35:50;17.20;99.90
324;DHT22;149;51.094;17.002;2023-04-24T06:38:16;17.10;99.90
324;DHT22;149;51.094;17.002;2023-04-24T06:40:43;17.10;99.90
324;DHT22;149;51.094;17.002;2023-04-24T06:43:13;17.10;99.90
324;DHT22;149;51.094;17.002;2023-04-24T06:45:41;17.10;99.90
324;DHT22;149;51.094;17.002;2023-04-24T06:48:10;17.60;99.90
324;DHT22;149;51.094;17.002;2023-04-24T06:50:37;17.10;99.90
324;DHT22;149;51.094;17.002;2023-04-24T06:53:04;17.10;99.90
324;DHT22;149;51.094;17.002;2023-04-24T06:55:32;17.30;99.90
324;DHT22;149;51.094;17.002;2023-04-24T06:58:00;17.40;99.90
324;DHT22;149;51.094;17.002;2023-04-24T07:00:27;18.70;99.90
324;DHT22;149;51.094;17.002;2023-04-24T07:02:54;18.30;99.90
324;DHT22;149;51.094;17.002;2023-04-24T07:05:21;18.60;99.90
324;DHT22;149;51.094;17.002;2023-04-24T07:07:49;18.60;99.90
324;DHT22;149;51.094;17.002;2023-04-24T07:10:18;18.60;99.90
324;DHT22;149;51.094;17.002;2023-04-24T07:12:45;18.90;99.90
324;DHT22;149;51.094;17.002;2023-04-24T07:15:13;19.80;99.90
324;DHT22;149;51.094;17.002;2023-04-24T07:17:40;20.00;99.90
324;DHT22;149;51.094;17.002;2023-04-24T07:20:11;20.00;99.90
324;DHT22;149;51.094;17.002;2023-04-24T07:22:38;20.00;99.90
324;DHT22;149;51.094;17.002;2023-04-24T07:25:06;19.80;99.90
324;DHT22;149;51.094;17.002;2023-04-24T07:27:35;19.80;99.90
324;DHT22;149;51.094;17.002;2023-04-24T07:30:04;19.80;99.90
324;DHT22;149;51.094;17.002;2023-04-24T07:32:30;20.10;99.90
324;DHT22;149;51.094;17.002;2023-04-24T07:34:58;20.00;99.90
324;DHT22;149;51.094;17.002;2023-04-24T07:37:25;20.30;99.90
324;DHT22;149;51.094;17.002;2023-04-24T07:39:55;20.50;99.90
324;DHT22;149;51.094;17.002;2023-04-24T07:42:22;20.30;99.90
324;DHT22;149;51.094;17.002;2023-04-24T07:44:49;20.30;99.90
324;DHT22;149;51.094;17.002;2023-04-24T07:47:18;20.40;99.90
324;DHT22;149;51.094;17.002;2023-04-24T07:49:44;20.30;99.90
324;DHT22;149;51.094;17.002;2023-04-24T07:52:12;20.70;99.90
324;DHT22;149;51.094;17.002;2023-04-24T07:54:38;20.10;99.90
324;DHT22;149;51.094;17.002;2023-04-24T07:57:05;20.50;99.90
324;DHT22;149;51.094;17.002;2023-04-24T07:59:33;20.80;99.90
324;DHT22;149;51.094;17.002;2023-04-24T08:02:00;20.30;99.90
324;DHT22;149;51.094;17.002;2023-04-24T08:04:28;20.40;99.90
324;DHT22;149;51.094;17.002;2023-04-24T08:06:55;20.40;99.90
324;DHT22;149;51.094;17.002;2023-04-24T08:09:23;20.60;99.90
324;DHT22;149;51.094;17.002;2023-04-24T08:11:52;20.50;99.90
324;DHT22;149;51.094;17.002;2023-04-24T08:14:20;20.40;99.90
324;DHT22;149;51.094;17.002;2023-04-24T08:16:47;20.80;99.90
324;DHT22;149;51.094;17.002;2023-04-24T08:19:14;20.30;99.90
324;DHT22;149;51.094;17.002;2023-04-24T08:21:40;20.10;99.90
324;DHT22;149;51.094;17.002;2023-04-24T08:24:08;19.90;99.90
324;DHT22;149;51.094;17.002;2023-04-24T08:26:35;19.90;99.90
324;DHT22;149;51.094;17.002;2023-04-24T08:29:02;19.30;99.90
324;DHT22;149;51.094;17.002;2023-04-24T08:31:29;20.60;99.90
324;DHT22;149;51.094;17.002;2023-04-24T08:33:56;19.30;99.90
324;DHT22;149;51.094;17.002;2023-04-24T08:36:23;19.30;99.90
324;DHT22;149;51.094;17.002;2023-04-24T08:39:09;19.20;99.90
324;DHT22;149;51.094;17.002;2023-04-24T08:41:37;19.30;99.90
324;DHT22;149;51.094;17.002;2023-04-24T08:44:07;18.80;99.90
324;DHT22;149;51.094;17.002;2023-04-24T08:46:37;18.90;99.90
324;DHT22;149;51.094;17.002;2023-04-24T08:49:04;19.00;99.90
324;DHT22;149;51.094;17.002;2023-04-24T08:51:31;19.30;99.90
324;DHT22;149;51.094;17.002;2023-04-24T08:53:58;19.30;99.90
324;DHT22;149;51.094;17.002;2023-04-24T08:56:26;19.40;99.90
324;DHT22;149;51.094;17.002;2023-04-24T08:58:54;19.60;99.90
324;DHT22;149;51.094;17.002;2023-04-24T09:01:22;19.50;99.90
324;DHT22;149;51.094;17.002;2023-04-24T09:03:50;19.60;99.90
324;DHT22;149;51.094;17.002;2023-04-24T09:06:19;19.80;99.90
324;DHT22;149;51.094;17.002;2023-04-24T09:08:52;20.30;99.90
324;DHT22;149;51.094;17.002;2023-04-24T09:11:20;20.90;99.90
324;DHT22;149;51.094;17.002;2023-04-24T09:13:48;21.40;99.90
324;DHT22;149;51.094;17.002;2023-04-24T09:16:15;21.80;99.90
324;DHT22;149;51.094;17.002;2023-04-24T09:18:42;22.50;99.90
324;DHT22;149;51.094;17.002;2023-04-24T09:21:11;24.10;99.90
324;DHT22;149;51.094;17.002;2023-04-24T09:23:38;24.90;99.90
324;DHT22;149;51.094;17.002;2023-04-24T09:26:05;25.90;99.90
324;DHT22;149;51.094;17.002;2023-04-24T09:28:37;26.00;99.90
324;DHT22;149;51.094;17.002;2023-04-24T09:31:09;25.50;99.90
324;DHT22;149;51.094;17.002;2023-04-24T09:33:37;24.80;99.90
324;DHT22;149;51.094;17.002;2023-04-24T09:36:04;24.50;99.90
324;DHT22;149;51.094;17.002;2023-04-24T09:38:35;24.30;99.90
324;DHT22;149;51.094;17.002;2023-04-24T09:41:05;23.80;99.90
324;DHT22;149;51.094;17.002;2023-04-24T09:43:33;23.40;99.90
324;DHT22;149;51.094;17.002;2023-04-24T09:46:05;23.20;99.90
324;DHT22;149;51.094;17.002;2023-04-24T09:48:34;22.60;99.90
324;DHT22;149;51.094;17.002;2023-04-24T09:51:03;22.40;99.90
324;DHT22;149;51.094;17.002;2023-04-24T09:53:31;22.40;99.90
324;DHT22;149;51.094;17.002;2023-04-24T09:56:08;22.20;99.90
324;DHT22;149;51.094;17.002;2023-04-24T09:58:36;22.70;99.90
324;DHT22;149;51.094;17.002;2023-04-24T10:01:03;22.70;99.90
324;DHT22;149;51.094;17.002;2023-04-24T10:03:33;22.50;99.90
324;DHT22;149;51.094;17.002;2023-04-24T10:06:01;22.10;99.90
324;DHT22;149;51.094;17.002;2023-04-24T10:08:36;22.00;99.90
324;DHT22;149;51.094;17.002;2023-04-24T10:11:02;21.80;99.90
324;DHT22;149;51.094;17.002;2023-04-24T10:13:30;21.80;99.90
324;DHT22;149;51.094;17.002;2023-04-24T10:16:00;21.80;99.90
324;DHT22;149;51.094;17.002;2023-04-24T10:18:28;21.60;99.90
324;DHT22;149;51.094;17.002;2023-04-24T10:20:55;21.70;99.90
324;DHT22;149;51.094;17.002;2023-04-24T10:23:25;21.30;99.90
324;DHT22;149;51.094;17.002;2023-04-24T10:25:52;21.30;99.90
324;DHT22;149;51.094;17.002;2023-04-24T10:28:20;21.00;99.90
324;DHT22;149;51.094;17.002;2023-04-24T10:30:49;20.70;99.90
324;DHT22;149;51.094;17.002;2023-04-24T10:33:17;21.10;99.90
324;DHT22;149;51.094;17.002;2023-04-24T10:35:45;21.50;99.90
324;DHT22;149;51.094;17.002;2023-04-24T10:38:23;22.10;99.90
324;DHT22;149;51.094;17.002;2023-04-24T10:40:51;22.30;99.90
324;DHT22;149;51.094;17.002;2023-04-24T10:43:23;22.10;99.90
324;DHT22;149;51.094;17.002;2023-04-24T10:46:09;22.20;99.90
324;DHT22;149;51.094;17.002;2023-04-24T10:48:42;22.10;99.90
324;DHT22;149;51.094;17.002;2023-04-24T10:51:12;21.70;99.90
324;DHT22;149;51.094;17.002;2023-04-24T10:53:40;21.40;99.90
324;DHT22;149;51.094;17.002;2023-04-24T10:56:09;21.00;99.90
324;DHT22;149;51.094;17.002;2023-04-24T10:58:51;21.00;99.90
324;DHT22;149;51.094;17.002;2023-04-24T11:01:30;21.00;99.90
324;DHT22;149;51.094;17.002;2023-04-24T11:03:59;21.30;99.90
324;DHT22;149;51.094;17.002;2023-04-24T11:06:33;21.40;99.90
324;DHT22;149;51.094;17.002;2023-04-24T11:09:07;21.20;99.90
324;DHT22;149;51.094;17.002;2023-04-24T11:11:37;21.10;99.90
324;DHT22;149;51.094;17.002;2023-04-24T11:14:08;20.90;99.90
324;DHT22;149;51.094;17.002;2023-04-24T11:16:45;21.00;99.90
324;DHT22;149;51.094;17.002;2023-04-24T11:19:23;21.00;99.90
324;DHT22;149;51.094;17.002;2023-04-24T11:22:05;21.50;99.90
324;DHT22;149;51.094;17.002;2023-04-24T11:24:49;21.30;99.90
324;DHT22;149;51.094;17.002;2023-04-24T11:27:19;21.50;99.90
324;DHT22;149;51.094;17.002;2023-04-24T11:35:22;21.80;99.90
324;DHT22;149;51.094;17.002;2023-04-24T11:37:52;22.00;99.90
324;DHT22;149;51.094;17.002;2023-04-24T11:40:23;22.70;99.90
324;DHT22;149;51.094;17.002;2023-04-24T11:42:51;22.90;99.90
324;DHT22;149;51.094;17.002;2023-04-24T11:45:23;23.60;99.90
324;DHT22;149;51.094;17.002;2023-04-24T11:47:51;23.40;99.90
324;DHT22;149;51.094;17.002;2023-04-24T11:50:21;23.10;99.90
324;DHT22;149;51.094;17.002;2023-04-24T11:52:49;23.20;99.90
324;DHT22;149;51.094;17.002;2023-04-24T11:57:48;22.90;99.90
324;DHT22;149;51.094;17.002;2023-04-24T12:00:20;22.80;99.90
324;DHT22;149;51.094;17.002;2023-04-24T12:14:48;21.90;99.90
324;DHT22;149;51.094;17.002;2023-04-24T12:17:17;21.50;99.90
324;DHT22;149;51.094;17.002;2023-04-24T12:19:49;21.40;99.90
324;DHT22;149;51.094;17.002;2023-04-24T12:22:17;20.90;99.90
324;DHT22;149;51.094;17.002;2023-04-24T12:25:01;21.70;99.90
324;DHT22;149;51.094;17.002;2023-04-24T12:27:30;20.60;99.90
324;DHT22;149;51.094;17.002;2023-04-24T12:29:58;20.30;99.90
324;DHT22;149;51.094;17.002;2023-04-24T12:32:26;20.90;99.90
324;DHT22;149;51.094;17.002;2023-04-24T12:34:55;20.40;99.90
324;DHT22;149;51.094;17.002;2023-04-24T12:37:24;20.00;99.90
324;DHT22;149;51.094;17.002;2023-04-24T12:39:59;20.30;99.90
324;DHT22;149;51.094;17.002;2023-04-24T12:42:28;21.20;99.90
324;DHT22;149;51.094;17.002;2023-04-24T12:45:04;21.10;99.90
324;DHT22;149;51.094;17.002;2023-04-24T12:47:32;21.10;99.90
324;DHT22;149;51.094;17.002;2023-04-24T12:50:00;20.20;99.90
324;DHT22;149;51.094;17.002;2023-04-24T12:52:29;20.90;99.90
324;DHT22;149;51.094;17.002;2023-04-24T12:54:58;21.50;99.90
324;DHT22;149;51.094;17.002;2023-04-24T12:57:28;20.10;99.90
324;DHT22;149;51.094;17.002;2023-04-24T12:59:58;19.20;99.90
324;DHT22;149;51.094;17.002;2023-04-24T13:02:27;17.90;99.90
324;DHT22;149;51.094;17.002;2023-04-24T13:04:56;18.60;99.90
324;DHT22;149;51.094;17.002;2023-04-24T13:07:23;18.20;99.90
324;DHT22;149;51.094;17.002;2023-04-24T13:09:51;19.00;99.90
324;DHT22;149;51.094;17.002;2023-04-24T13:12:19;17.90;99.90
324;DHT22;149;51.094;17.002;2023-04-24T13:14:47;17.60;99.90
324;DHT22;149;51.094;17.002;2023-04-24T13:17:14;17.50;99.90
324;DHT22;149;51.094;17.002;2023-04-24T13:19:44;18.00;99.90
324;DHT22;149;51.094;17.002;2023-04-24T13:22:12;17.20;99.90
324;DHT22;149;51.094;17.002;2023-04-24T13:24:39;16.90;99.90
324;DHT22;149;51.094;17.002;2023-04-24T13:27:08;16.80;99.90
324;DHT22;149;51.094;17.002;2023-04-24T13:29:37;16.30;99.90
324;DHT22;149;51.094;17.002;2023-04-24T13:32:04;16.60;99.90
324;DHT22;149;51.094;17.002;2023-04-24T13:34:31;16.50;99.90
324;DHT22;149;51.094;17.002;2023-04-24T13:36:58;16.70;99.90
324;DHT22;149;51.094;17.002;2023-04-24T13:39:26;16.20;99.90
324;DHT22;149;51.094;17.002;2023-04-24T13:41:53;16.30;99.90
324;DHT22;149;51.094;17.002;2023-04-24T13:44:21;16.20;99.90
324;DHT22;149;51.094;17.002;2023-04-24T13:46:51;16.00;99.90
324;DHT22;149;51.094;17.002;2023-04-24T13:49:18;16.00;99.90
324;DHT22;149;51.094;17.002;2023-04-24T13:51:46;16.40;99.90
324;DHT22;149;51.094;17.002;2023-04-24T13:54:13;16.90;99.90
324;DHT22;149;51.094;17.002;2023-04-24T13:56:40;15.90;99.90
324;DHT22;149;51.094;17.002;2023-04-24T13:59:07;16.60;99.90
324;DHT22;149;51.094;17.002;2023-04-24T14:01:35;16.00;99.90
324;DHT22;149;51.094;17.002;2023-04-24T14:04:02;16.00;99.90
324;DHT22;149;51.094;17.002;2023-04-24T14:06:30;15.70;99.90
324;DHT22;149;51.094;17.002;2023-04-24T14:08:57;15.60;99.90
324;DHT22;149;51.094;17.002;2023-04-24T14:11:24;15.50;99.90
324;DHT22;149;51.094;17.002;2023-04-24T14:13:54;15.50;99.90
324;DHT22;149;51.094;17.002;2023-04-24T14:16:23;15.60;99.90
324;DHT22;149;51.094;17.002;2023-04-24T14:18:50;16.00;99.90
324;DHT22;149;51.094;17.002;2023-04-24T14:21:17;15.80;99.90
324;DHT22;149;51.094;17.002;2023-04-24T14:23:44;15.70;99.90
324;DHT22;149;51.094;17.002;2023-04-24T14:26:12;15.60;99.90
324;DHT22;149;51.094;17.002;2023-04-24T14:28:39;15.60;99.90
324;DHT22;149;51.094;17.002;2023-04-24T14:31:07;15.40;99.90
324;DHT22;149;51.094;17.002;2023-04-24T14:33:35;15.20;99.90
324;DHT22;149;51.094;17.002;2023-04-24T14:36:02;16.50;99.90
324;DHT22;149;51.094;17.002;2023-04-24T14:38:31;15.10;99.90
324;DHT22;149;51.094;17.002;2023-04-24T14:40:58;15.80;99.90
324;DHT22;149;51.094;17.002;2023-04-24T14:43:33;15.90;99.90
324;DHT22;149;51.094;17.002;2023-04-24T14:46:02;15.30;99.90
324;DHT22;149;51.094;17.002;2023-04-24T14:48:29;15.30;99.90
324;DHT22;149;51.094;17.002;2023-04-24T14:50:57;15.20;99.90
324;DHT22;149;51.094;17.002;2023-04-24T14:53:25;15.00;99.90
324;DHT22;149;51.094;17.002;2023-04-24T14:55:52;15.40;99.90
324;DHT22;149;51.094;17.002;2023-04-24T14:58:19;14.90;99.90
324;DHT22;149;51.094;17.002;2023-04-24T15:00:45;16.50;99.90
324;DHT22;149;51.094;17.002;2023-04-24T15:03:13;15.70;99.90
324;DHT22;149;51.094;17.002;2023-04-24T15:05:42;14.90;99.90
324;DHT22;149;51.094;17.002;2023-04-24T15:08:09;15.50;99.90
324;DHT22;149;51.094;17.002;2023-04-24T15:10:36;14.70;99.90
324;DHT22;149;51.094;17.002;2023-04-24T15:13:03;14.70;99.90
324;DHT22;149;51.094;17.002;2023-04-24T15:15:30;14.20;99.90
324;DHT22;149;51.094;17.002;2023-04-24T15:17:57;14.50;99.90
324;DHT22;149;51.094;17.002;2023-04-24T15:20:23;14.50;99.90
324;DHT22;149;51.094;17.002;2023-04-24T15:22:50;14.60;99.90
324;DHT22;149;51.094;17.002;2023-04-24T15:25:17;15.00;99.90
324;DHT22;149;51.094;17.002;2023-04-24T15:27:46;14.40;99.90
324;DHT22;149;51.094;17.002;2023-04-24T15:30:13;14.50;99.90
324;DHT22;149;51.094;17.002;2023-04-24T15:32:46;14.50;99.90
324;DHT22;149;51.094;17.002;2023-04-24T15:35:17;14.90;99.90
324;DHT22;149;51.094;17.002;2023-04-24T15:37:46;14.40;99.90
324;DHT22;149;51.094;17.002;2023-04-24T15:40:15;14.30;99.90
324;DHT22;149;51.094;17.002;2023-04-24T15:42:42;14.20;99.90
324;DHT22;149;51.094;17.002;2023-04-24T15:45:10;14.30;99.90
324;DHT22;149;51.094;17.002;2023-04-24T15:47:37;14.50;99.90
324;DHT22;149;51.094;17.002;2023-04-24T15:50:08;14.30;99.90
324;DHT22;149;51.094;17.002;2023-04-24T15:52:39;14.10;99.90
324;DHT22;149;51.094;17.002;2023-04-24T15:55:07;14.10;99.90
324;DHT22;149;51.094;17.002;2023-04-24T15:57:36;14.10;99.90
324;DHT22;149;51.094;17.002;2023-04-24T16:00:04;14.20;99.90
324;DHT22;149;51.094;17.002;2023-04-24T16:02:35;14.30;99.90
324;DHT22;149;51.094;17.002;2023-04-24T16:05:02;14.50;99.90
324;DHT22;149;51.094;17.002;2023-04-24T16:07:30;14.60;99.90
324;DHT22;149;51.094;17.002;2023-04-24T16:09:57;14.60;99.90
324;DHT22;149;51.094;17.002;2023-04-24T16:12:24;14.80;99.90
324;DHT22;149;51.094;17.002;2023-04-24T16:14:53;15.00;99.90
324;DHT22;149;51.094;17.002;2023-04-24T16:17:23;14.90;99.90
324;DHT22;149;51.094;17.002;2023-04-24T16:19:50;14.70;99.90
324;DHT22;149;51.094;17.002;2023-04-24T16:22:17;14.80;99.90
324;DHT22;149;51.094;17.002;2023-04-24T16:24:44;15.20;99.90
324;DHT22;149;51.094;17.002;2023-04-24T16:27:20;14.90;99.90
324;DHT22;149;51.094;17.002;2023-04-24T16:29:47;14.40;99.90
324;DHT22;149;51.094;17.002;2023-04-24T16:32:15;14.70;99.90
324;DHT22;149;51.094;17.002;2023-04-24T16:34:43;14.30;99.90
324;DHT22;149;51.094;17.002;2023-04-24T16:37:11;14.50;99.90
324;DHT22;149;51.094;17.002;2023-04-24T16:39:38;14.20;99.90
324;DHT22;149;51.094;17.002;2023-04-24T16:42:15;14.80;99.90
324;DHT22;149;51.094;17.002;2023-04-24T16:44:47;14.30;99.90